createdAt,value
2017-05-25T00:00:19.651Z,71.07
2017-05-25T00:01:29.604Z,71.07
2017-05-25T00:02:39.860Z,71.26
2017-05-25T00:03:50.130Z,71.07
2017-05-25T00:04:59.832Z,71.26
2017-05-25T00:06:10.394Z,70.78
2017-05-25T00:07:20.658Z,71.17
2017-05-25T00:08:30.925Z,71.64
2017-05-25T00:09:40.890Z,71.55
2017-05-25T00:10:51.158Z,71.13
2017-05-25T00:12:01.318Z,71.07
2017-05-25T00:13:11.274Z,71.32
2017-05-25T00:14:21.543Z,71.36
2017-05-25T00:15:31.807Z,71.55
2017-05-25T00:16:42.066Z,71.51
2017-05-25T00:17:52.581Z,71.93
2017-05-25T00:19:02.841Z,71.89
2017-05-25T00:20:13.105Z,71.73
2017-05-25T00:21:22.743Z,71.36
2017-05-25T00:22:33.003Z,71.36
2017-05-25T00:23:42.935Z,70.88
2017-05-25T00:24:52.890Z,71.36
2017-05-25T00:26:02.842Z,71.64
2017-05-25T00:27:13.104Z,71.07
2017-05-25T00:28:23.255Z,71.36
2017-05-25T00:29:33.512Z,71.07
2017-05-25T00:30:43.144Z,70.69
2017-05-25T00:31:53.414Z,71.07
2017-05-25T00:33:03.048Z,70.4
2017-05-25T00:34:13.319Z,70.69
2017-05-25T00:35:23.837Z,70.69
2017-05-25T00:36:34.105Z,70.69
2017-05-25T00:37:43.740Z,70.78
2017-05-25T00:38:54.001Z,70.78
2017-05-25T00:40:03.954Z,70.59
2017-05-25T00:41:14.200Z,70.88
2017-05-25T00:42:24.148Z,70.59
2017-05-25T00:43:34.415Z,70.4
2017-05-25T00:44:44.686Z,70.02
2017-05-25T00:45:54.957Z,70.59
2017-05-25T00:47:05.104Z,70.5
2017-05-25T00:48:15.365Z,70.21
2017-05-25T00:49:25.638Z,69.93
2017-05-25T00:50:35.590Z,70.02
2017-05-25T00:51:45.857Z,69.83
2017-05-25T00:52:58.373Z,70.21
2017-05-25T00:54:08.320Z,70.21
2017-05-25T00:55:18.588Z,69.83
2017-05-25T00:56:28.534Z,70.31
2017-05-25T00:57:38.800Z,70.78
2017-05-25T00:58:48.950Z,70.88
2017-05-25T00:59:59.281Z,70.97
2017-05-25T01:01:09.549Z,70.12
2017-05-25T01:02:19.502Z,70.88
2017-05-25T01:03:29.767Z,71.22
2017-05-25T01:04:40.280Z,70.84
2017-05-25T01:05:50.547Z,70.47
2017-05-25T01:07:00.493Z,70.37
2017-05-25T01:08:10.448Z,71.22
2017-05-25T01:09:20.720Z,71.22
2017-05-25T01:10:31.287Z,70.94
2017-05-25T01:11:41.549Z,71.22
2017-05-25T01:12:51.811Z,71.51
2017-05-25T01:14:01.762Z,71.51
2017-05-25T01:15:12.025Z,71.13
2017-05-25T01:16:22.324Z,71.22
2017-05-25T01:17:32.592Z,72.17
2017-05-25T01:18:42.551Z,73.32
2017-05-25T01:19:52.823Z,74.75
2017-05-25T01:21:02.785Z,75.51
2017-05-25T01:22:15.356Z,75.99
2017-05-25T01:23:25.310Z,75.99
2017-05-25T01:24:35.569Z,76.18
2017-05-25T01:25:45.834Z,74.27
2017-05-25T01:26:56.092Z,74.37
2017-05-25T01:28:06.294Z,73.85
2017-05-25T01:29:16.557Z,74.43
2017-05-25T01:30:26.220Z,74.24
2017-05-25T01:31:36.170Z,74.24
2017-05-25T01:32:46.439Z,75.57
2017-05-25T01:33:56.900Z,74.52
2017-05-25T01:35:06.852Z,73.85
2017-05-25T01:36:16.801Z,71.09
2017-05-25T01:37:26.759Z,70.62
2017-05-25T01:38:37.022Z,69.95
2017-05-25T01:39:46.912Z,69.67
2017-05-25T01:40:57.181Z,69.85
2017-05-25T01:42:07.132Z,69.85
2017-05-25T01:43:17.398Z,69.95
2017-05-25T01:44:27.663Z,71.38
2017-05-25T01:45:38.173Z,71
2017-05-25T01:46:48.126Z,71.86
2017-05-25T01:47:57.812Z,73.66
2017-05-25T01:49:08.074Z,74.52
2017-05-25T01:50:18.022Z,75.28
2017-05-25T01:51:28.271Z,77.09
2017-05-25T01:52:38.222Z,77.76
2017-05-25T01:53:48.499Z,77.66
2017-05-25T01:54:58.787Z,77.53
2017-05-25T01:56:09.052Z,78.23
2017-05-25T01:57:19.563Z,78.29
2017-05-25T01:58:29.827Z,79.91
2017-05-25T01:59:39.777Z,79.24
2017-05-25T02:00:49.733Z,77.43
2017-05-25T02:01:59.366Z,77.81
2017-05-25T02:03:09.621Z,80
2017-05-25T02:04:19.885Z,79.72
2017-05-25T02:05:30.151Z,80
2017-05-25T02:06:40.418Z,79.05
2017-05-25T02:07:50.690Z,79.91
2017-05-25T02:09:01.253Z,79.33
2017-05-25T02:10:11.523Z,79.14
2017-05-25T02:11:21.470Z,79.81
2017-05-25T02:12:31.746Z,80.47
2017-05-25T02:13:42.010Z,79.96
2017-05-25T02:14:52.531Z,80
2017-05-25T02:16:02.792Z,80
2017-05-25T02:17:12.753Z,78.96
2017-05-25T02:18:23.022Z,77.97
2017-05-25T02:19:32.979Z,77.87
2017-05-25T02:20:43.124Z,78.38
2017-05-25T02:21:53.086Z,79.14
2017-05-25T02:23:03.037Z,80.1
2017-05-25T02:24:13.303Z,80.29
2017-05-25T02:25:22.935Z,80.19
2017-05-25T02:26:33.181Z,78.53
2017-05-25T02:27:43.131Z,78.63
2017-05-25T02:28:52.759Z,78.16
2017-05-25T02:30:02.711Z,78.63
2017-05-25T02:31:12.981Z,78.63
2017-05-25T02:32:23.180Z,78.63
2017-05-25T02:33:33.440Z,78.06
2017-05-25T02:34:43.734Z,78.44
2017-05-25T02:35:53.993Z,77.01
2017-05-25T02:37:04.253Z,75.59
2017-05-25T02:38:14.818Z,75.02
2017-05-25T02:39:25.084Z,75.53
2017-05-25T02:40:35.032Z,75.49
2017-05-25T02:41:44.668Z,75.3
2017-05-25T02:42:54.935Z,74.92
2017-05-25T02:44:07.197Z,75.59
2017-05-25T02:45:17.463Z,74.92
2017-05-25T02:46:27.410Z,75.43
2017-05-25T02:47:37.353Z,75.4
2017-05-25T02:48:47.629Z,76.01
2017-05-25T02:49:57.892Z,76.76
2017-05-25T02:51:07.526Z,77.05
2017-05-25T02:52:17.806Z,76.48
2017-05-25T02:53:27.755Z,76.96
2017-05-25T02:54:38.020Z,76.48
2017-05-25T02:55:48.278Z,75.62
2017-05-25T02:56:58.603Z,75.72
2017-05-25T02:58:07.924Z,76.2
2017-05-25T02:59:18.214Z,76.1
2017-05-25T03:00:28.482Z,76.54
2017-05-25T03:01:38.742Z,76.25
2017-05-25T03:02:49.007Z,76.06
2017-05-25T03:03:59.265Z,76.06
2017-05-25T03:05:08.900Z,75.78
2017-05-25T03:06:19.166Z,76.25
2017-05-25T03:07:29.429Z,75.78
2017-05-25T03:08:39.707Z,76.25
2017-05-25T03:09:49.971Z,75.4
2017-05-25T03:11:00.253Z,75.87
2017-05-25T03:12:10.201Z,76.35
2017-05-25T03:13:20.461Z,76.16
2017-05-25T03:14:30.410Z,75.68
2017-05-25T03:15:40.713Z,75.96
2017-05-25T03:16:50.668Z,75.59
2017-05-25T03:18:00.618Z,76.16
2017-05-25T03:19:09.947Z,76.16
2017-05-25T03:20:20.208Z,76.06
2017-05-25T03:21:30.472Z,76.16
2017-05-25T03:22:40.743Z,76.25
2017-05-25T03:23:50.689Z,76.06
2017-05-25T03:25:00.646Z,76.54
2017-05-25T03:26:10.280Z,76.25
2017-05-25T03:27:20.235Z,76.35
2017-05-25T03:28:29.873Z,75.96
2017-05-25T03:29:40.136Z,76.54
2017-05-25T03:30:49.770Z,76.92
2017-05-25T03:31:59.727Z,76.92
2017-05-25T03:33:09.043Z,77.11
2017-05-25T03:34:18.996Z,77.11
2017-05-25T03:35:29.252Z,76.54
2017-05-25T03:36:39.508Z,77.11
2017-05-25T03:37:49.456Z,76.63
2017-05-25T03:38:59.718Z,76.82
2017-05-25T03:40:09.666Z,76.73
2017-05-25T03:41:19.608Z,77.49
2017-05-25T03:42:29.553Z,77.58
2017-05-25T03:43:39.560Z,77.87
2017-05-25T03:44:49.831Z,78.06
2017-05-25T03:45:59.776Z,77.39
2017-05-25T03:47:10.039Z,77.77
2017-05-25T03:48:19.991Z,77.97
2017-05-25T03:49:30.260Z,78.63
2017-05-25T03:50:40.525Z,78.34
2017-05-25T03:51:50.787Z,78.34
2017-05-25T03:53:01.049Z,78.53
2017-05-25T03:54:11.315Z,79.01
2017-05-25T03:55:21.259Z,79.2
2017-05-25T03:56:31.224Z,79.01
2017-05-25T03:57:41.173Z,79.2
2017-05-25T03:58:51.443Z,78.48
2017-05-25T04:00:01.407Z,77.77
2017-05-25T04:01:11.667Z,77.49
2017-05-25T04:02:21.300Z,77.77
2017-05-25T04:03:31.559Z,78.16
2017-05-25T04:04:41.836Z,77.97
2017-05-25T04:05:52.103Z,77.77
2017-05-25T04:07:02.046Z,78.44
2017-05-25T04:08:12.311Z,77.68
2017-05-25T04:09:22.578Z,77.87
2017-05-25T04:10:32.517Z,77.49
2017-05-25T04:11:42.771Z,77.68
2017-05-25T04:12:52.730Z,77.11
2017-05-25T04:14:03.023Z,76.73
2017-05-25T04:15:12.654Z,77.68
2017-05-25T04:16:22.910Z,78.06
2017-05-25T04:17:33.169Z,78.34
2017-05-25T04:18:43.426Z,78.53
2017-05-25T04:19:53.384Z,78.53
2017-05-25T04:21:03.655Z,78.48
2017-05-25T04:22:13.917Z,77.62
2017-05-25T04:23:24.181Z,77.62
2017-05-25T04:24:34.441Z,78.38
2017-05-25T04:25:44.708Z,77.72
2017-05-25T04:26:54.971Z,76.76
2017-05-25T04:28:05.233Z,77.34
2017-05-25T04:29:15.500Z,77.24
2017-05-25T04:30:25.452Z,76.76
2017-05-25T04:31:35.712Z,77.53
2017-05-25T04:32:45.982Z,76.96
2017-05-25T04:33:56.246Z,76.48
2017-05-25T04:35:05.883Z,76.01
2017-05-25T04:36:15.219Z,76.81
2017-05-25T04:37:25.485Z,76.86
2017-05-25T04:38:35.755Z,76.86
2017-05-25T04:39:45.705Z,76.67
2017-05-25T04:40:55.667Z,76.33
2017-05-25T04:42:05.935Z,77
2017-05-25T04:43:15.884Z,76.61
2017-05-25T04:44:25.836Z,76.9
2017-05-25T04:45:35.471Z,76.04
2017-05-25T04:46:45.733Z,75.28
2017-05-25T04:47:55.686Z,76.14
2017-05-25T04:49:05.950Z,76.23
2017-05-25T04:50:15.903Z,76.04
2017-05-25T04:51:26.167Z,76.14
2017-05-25T04:52:36.478Z,75.67
2017-05-25T04:53:46.739Z,75.85
2017-05-25T04:54:56.683Z,76.14
2017-05-25T04:56:06.952Z,75.67
2017-05-25T04:57:17.222Z,75.57
2017-05-25T04:58:30.199Z,76.23
2017-05-25T04:59:40.457Z,76.9
2017-05-25T05:00:50.721Z,77.28
2017-05-25T05:02:00.372Z,76.23
2017-05-25T05:03:10.007Z,75.95
2017-05-25T05:04:20.269Z,75.67
2017-05-25T05:05:29.901Z,74.9
2017-05-25T05:06:40.168Z,75.85
2017-05-25T05:07:50.428Z,75.85
2017-05-25T05:09:00.385Z,74.46
2017-05-25T05:10:10.324Z,73.7
2017-05-25T05:11:20.588Z,73.61
2017-05-25T05:12:30.844Z,72.56
2017-05-25T05:13:40.481Z,72.65
2017-05-25T05:14:50.739Z,73.8
2017-05-25T05:16:00.376Z,73.32
2017-05-25T05:17:10.323Z,73.8
2017-05-25T05:18:20.271Z,72.56
2017-05-25T05:19:30.225Z,73.41
2017-05-25T05:20:40.493Z,72.17
2017-05-25T05:21:50.440Z,71.51
2017-05-25T05:23:00.389Z,72.21
2017-05-25T05:24:10.334Z,71.26
2017-05-25T05:25:20.597Z,72.12
2017-05-25T05:26:30.857Z,71.45
2017-05-25T05:27:41.120Z,72.02
2017-05-25T05:28:51.388Z,71.55
2017-05-25T05:30:01.344Z,71.07
2017-05-25T05:31:11.294Z,71.87
2017-05-25T05:32:21.553Z,71.68
2017-05-25T05:33:31.814Z,70.63
2017-05-25T05:34:41.774Z,69.2
2017-05-25T05:35:52.033Z,71.58
2017-05-25T05:37:02.289Z,69.77
2017-05-25T05:38:12.237Z,69.58
2017-05-25T05:39:22.498Z,68.53
2017-05-25T05:40:32.761Z,68.28
2017-05-25T05:41:43.023Z,67.52
2017-05-25T05:42:53.285Z,66.47
2017-05-25T05:44:02.922Z,66.47
2017-05-25T05:45:12.245Z,67.8
2017-05-25T05:46:22.513Z,68.18
2017-05-25T05:47:32.774Z,65.74
2017-05-25T05:48:42.726Z,65.93
2017-05-25T05:49:52.989Z,66.41
2017-05-25T05:51:03.262Z,65.26
2017-05-25T05:52:13.540Z,65.36
2017-05-25T05:53:23.810Z,65.83
2017-05-25T05:54:33.763Z,65.17
2017-05-25T05:55:43.711Z,64.69
2017-05-25T05:56:53.968Z,65.2
2017-05-25T05:58:04.239Z,64.72
2017-05-25T05:59:14.190Z,63.96
2017-05-25T06:00:23.512Z,64.53
2017-05-25T06:01:33.460Z,64.34
2017-05-25T06:02:43.728Z,63
2017-05-25T06:03:53.988Z,63.96
2017-05-25T06:05:03.632Z,62.15
2017-05-25T06:06:13.267Z,62.81
2017-05-25T06:07:23.541Z,63
2017-05-25T06:08:33.813Z,62.75
2017-05-25T06:09:43.467Z,62.75
2017-05-25T06:10:53.734Z,62.18
2017-05-25T06:12:03.699Z,63.13
2017-05-25T06:13:13.656Z,63.03
2017-05-25T06:14:23.606Z,62.84
2017-05-25T06:15:33.565Z,61.51
2017-05-25T06:16:43.517Z,60.87
2017-05-25T06:17:53.469Z,60.87
2017-05-25T06:19:03.416Z,60.87
2017-05-25T06:20:13.368Z,61.44
2017-05-25T06:21:23.321Z,61.44
2017-05-25T06:22:33.587Z,60.58
2017-05-25T06:23:43.224Z,60.77
2017-05-25T06:24:53.486Z,60.61
2017-05-25T06:26:03.753Z,59.24
2017-05-25T06:27:13.704Z,60.13
2017-05-25T06:28:23.660Z,61.72
2017-05-25T06:29:33.928Z,62.33
2017-05-25T06:30:43.568Z,62.04
2017-05-25T06:31:53.215Z,61.85
2017-05-25T06:33:03.478Z,61.57
2017-05-25T06:34:13.750Z,61.57
2017-05-25T06:35:24.018Z,61.44
2017-05-25T06:36:34.281Z,63.29
2017-05-25T06:37:44.554Z,63.57
2017-05-25T06:38:54.825Z,64.22
2017-05-25T06:40:05.087Z,62.97
2017-05-25T06:41:15.039Z,63.93
2017-05-25T06:42:24.991Z,64.31
2017-05-25T06:43:35.259Z,63.54
2017-05-25T06:44:45.534Z,64.02
2017-05-25T06:45:55.501Z,64.02
2017-05-25T06:47:05.765Z,60.8
2017-05-25T06:48:15.088Z,62.33
2017-05-25T06:49:25.359Z,62.81
2017-05-25T06:50:35.318Z,62.62
2017-05-25T06:51:45.282Z,61.95
2017-05-25T06:52:55.557Z,62.04
2017-05-25T06:54:05.505Z,61.66
2017-05-25T06:55:15.152Z,62.14
2017-05-25T06:56:25.426Z,63.39
2017-05-25T06:57:35.385Z,64.15
2017-05-25T06:58:45.653Z,63.1
2017-05-25T06:59:55.916Z,63.96
2017-05-25T07:01:11.217Z,64.34
2017-05-25T07:02:21.177Z,63.1
2017-05-25T07:03:31.442Z,63
2017-05-25T07:04:41.712Z,63.73
2017-05-25T07:05:51.985Z,64.5
2017-05-25T07:07:02.255Z,64.37
2017-05-25T07:08:11.895Z,64.85
2017-05-25T07:09:21.538Z,65.8
2017-05-25T07:10:31.804Z,66.95
2017-05-25T07:11:42.070Z,67.52
2017-05-25T07:12:52.341Z,67.14
2017-05-25T07:14:02.611Z,66.85
2017-05-25T07:15:12.561Z,65.8
2017-05-25T07:16:22.828Z,65.84
2017-05-25T07:17:32.783Z,64.85
2017-05-25T07:18:43.053Z,64.88
2017-05-25T07:19:53.324Z,65.17
2017-05-25T07:21:03.598Z,65.07
2017-05-25T07:22:13.929Z,65.17
2017-05-25T07:23:23.885Z,64.22
2017-05-25T07:24:34.159Z,64.22
2017-05-25T07:25:44.117Z,64.31
2017-05-25T07:26:54.382Z,63.93
2017-05-25T07:28:04.338Z,64.12
2017-05-25T07:29:14.293Z,64.82
2017-05-25T07:30:24.571Z,63.45
2017-05-25T07:31:34.836Z,64.02
2017-05-25T07:32:44.793Z,64.12
2017-05-25T07:33:55.064Z,64.4
2017-05-25T07:35:05.019Z,65.07
2017-05-25T07:36:15.289Z,65.17
2017-05-25T07:37:25.242Z,64.69
2017-05-25T07:38:35.504Z,64.25
2017-05-25T07:39:45.160Z,63
2017-05-25T07:40:55.114Z,63
2017-05-25T07:42:05.375Z,63.48
2017-05-25T07:43:15.337Z,63
2017-05-25T07:44:25.615Z,63.86
2017-05-25T07:45:35.895Z,61.85
2017-05-25T07:46:46.216Z,62.24
2017-05-25T07:47:56.481Z,63.19
2017-05-25T07:49:06.756Z,60.83
2017-05-25T07:50:16.714Z,60.83
2017-05-25T07:51:26.981Z,61.69
2017-05-25T07:52:36.936Z,61.28
2017-05-25T07:53:47.208Z,62.27
2017-05-25T07:54:57.167Z,61.6
2017-05-25T07:56:07.439Z,62.08
2017-05-25T07:57:17.715Z,61.79
2017-05-25T07:58:27.676Z,60.64
2017-05-25T07:59:37.323Z,60.29
2017-05-25T08:00:47.598Z,60.29
2017-05-25T08:01:57.881Z,59.23
2017-05-25T08:03:07.834Z,58.09
2017-05-25T08:04:17.479Z,59.43
2017-05-25T08:05:27.449Z,60.19
2017-05-25T08:06:37.402Z,60.19
2017-05-25T08:07:47.363Z,58.79
2017-05-25T08:08:57.323Z,57.54
2017-05-25T08:10:06.960Z,55.63
2017-05-25T08:11:16.913Z,57.42
2017-05-25T08:12:26.869Z,57.42
2017-05-25T08:13:37.138Z,58.76
2017-05-25T08:14:46.813Z,57.8
2017-05-25T08:15:57.087Z,57.92
2017-05-25T08:17:07.360Z,57.54
2017-05-25T08:18:17.626Z,56.87
2017-05-25T08:19:27.280Z,56.3
2017-05-25T08:20:37.549Z,55.91
2017-05-25T08:21:47.504Z,55.18
2017-05-25T08:22:57.773Z,54.6
2017-05-25T08:24:08.045Z,52.87
2017-05-25T08:25:17.376Z,53.74
2017-05-25T08:26:27.644Z,54.5
2017-05-25T08:27:37.912Z,54.1
2017-05-25T08:28:48.176Z,54.67
2017-05-25T08:29:58.459Z,54.5
2017-05-25T08:31:08.736Z,54.22
2017-05-25T08:32:19.007Z,53.45
2017-05-25T08:33:29.351Z,51.34
2017-05-25T08:34:39.620Z,50.58
2017-05-25T08:35:49.887Z,51.15
2017-05-25T08:37:00.159Z,52.01
2017-05-25T08:38:10.119Z,52.85
2017-05-25T08:39:20.398Z,55.02
2017-05-25T08:40:30.357Z,56.46
2017-05-25T08:41:40.629Z,56.37
2017-05-25T08:42:50.894Z,55.82
2017-05-25T08:44:01.177Z,55.73
2017-05-25T08:45:11.135Z,55.63
2017-05-25T08:46:21.097Z,54.67
2017-05-25T08:47:31.362Z,54.67
2017-05-25T08:48:41.318Z,55.24
2017-05-25T08:49:51.591Z,54.89
2017-05-25T08:51:01.869Z,54.41
2017-05-25T08:52:11.845Z,54.57
2017-05-25T08:53:22.119Z,54.67
2017-05-25T08:54:32.393Z,54.48
2017-05-25T08:55:42.351Z,53.36
2017-05-25T08:56:52.618Z,53.55
2017-05-25T08:58:02.891Z,52.97
2017-05-25T08:59:13.167Z,52.4
2017-05-25T09:00:23.445Z,50.7
2017-05-25T09:01:33.402Z,52.5
2017-05-25T09:02:43.672Z,53.16
2017-05-25T09:03:53.939Z,52.87
2017-05-25T09:05:03.911Z,52.52
2017-05-25T09:06:13.873Z,50.6
2017-05-25T09:07:23.835Z,50.96
2017-05-25T09:08:33.800Z,52.11
2017-05-25T09:09:44.072Z,51.15
2017-05-25T09:10:53.719Z,52.33
2017-05-25T09:12:03.365Z,51.18
2017-05-25T09:13:13.646Z,51.08
2017-05-25T09:14:22.980Z,51.85
2017-05-25T09:15:33.255Z,50.7
2017-05-25T09:16:43.518Z,50.7
2017-05-25T09:17:53.790Z,51.28
2017-05-25T09:19:03.749Z,50.79
2017-05-25T09:20:14.018Z,49.84
2017-05-25T09:21:24.291Z,50.7
2017-05-25T09:22:34.243Z,50.67
2017-05-25T09:23:44.516Z,49.52
2017-05-25T09:24:54.474Z,50.96
2017-05-25T09:26:04.118Z,51.44
2017-05-25T09:27:14.401Z,50.51
2017-05-25T09:28:24.359Z,50.89
2017-05-25T09:29:34.321Z,50.05
2017-05-25T09:30:44.596Z,49.86
2017-05-25T09:31:54.865Z,50.24
2017-05-25T09:33:05.135Z,49.02
2017-05-25T09:34:15.102Z,49.21
2017-05-25T09:35:25.058Z,48.66
2017-05-25T09:36:35.033Z,47.89
2017-05-25T09:37:45.302Z,47.32
2017-05-25T09:38:55.577Z,50.27
2017-05-25T09:40:05.540Z,49.12
2017-05-25T09:41:15.500Z,49.29
2017-05-25T09:42:25.776Z,50.24
2017-05-25T09:43:36.050Z,49.41
2017-05-25T09:44:46.016Z,49.12
2017-05-25T09:45:56.292Z,47.89
2017-05-25T09:47:06.559Z,48.25
2017-05-25T09:48:16.524Z,47.03
2017-05-25T09:49:25.853Z,47.13
2017-05-25T09:50:36.126Z,47.32
2017-05-25T09:51:46.095Z,46.94
2017-05-25T09:52:56.376Z,46.48
2017-05-25T09:54:06.655Z,46.38
2017-05-25T09:55:16.930Z,46.67
2017-05-25T09:56:26.576Z,46.28
2017-05-25T09:57:36.867Z,46.58
2017-05-25T09:58:47.149Z,46.77
2017-05-25T09:59:57.426Z,45.32
2017-05-25T10:01:07.073Z,44.58
2017-05-25T10:02:17.405Z,46.69
2017-05-25T10:03:27.364Z,45.15
2017-05-25T10:04:37.329Z,44.77
2017-05-25T10:05:47.618Z,44.02
2017-05-25T10:06:57.895Z,44.41
2017-05-25T10:08:08.172Z,44.31
2017-05-25T10:09:17.812Z,43.08
2017-05-25T10:10:27.774Z,41.62
2017-05-25T10:11:38.050Z,43.45
2017-05-25T10:12:47.693Z,43.43
2017-05-25T10:13:57.969Z,43.12
2017-05-25T10:15:07.926Z,43.74
2017-05-25T10:16:17.882Z,44.54
2017-05-25T10:17:28.152Z,46.45
2017-05-25T10:18:38.427Z,46.84
2017-05-25T10:19:48.389Z,45.21
2017-05-25T10:20:58.353Z,45.32
2017-05-25T10:22:08.622Z,45.04
2017-05-25T10:23:18.592Z,44.87
2017-05-25T10:24:28.569Z,46.41
2017-05-25T10:25:38.845Z,44.38
2017-05-25T10:26:49.123Z,44.02
2017-05-25T10:27:59.083Z,44.22
2017-05-25T10:29:09.361Z,44.51
2017-05-25T10:30:19.001Z,44.43
2017-05-25T10:31:28.961Z,43.85
2017-05-25T10:32:39.241Z,43.01
2017-05-25T10:33:49.518Z,43.3
2017-05-25T10:34:59.799Z,42.24
2017-05-25T10:36:09.753Z,42.93
2017-05-25T10:37:20.028Z,42.65
2017-05-25T10:38:29.990Z,42.36
2017-05-25T10:39:40.267Z,41.3
2017-05-25T10:40:50.546Z,41.78
2017-05-25T10:42:00.508Z,42.82
2017-05-25T10:43:10.157Z,43.01
2017-05-25T10:44:20.121Z,42.24
2017-05-25T10:45:30.395Z,42.24
2017-05-25T10:46:40.358Z,43.4
2017-05-25T10:47:50.629Z,43.11
2017-05-25T10:49:00.926Z,43.59
2017-05-25T10:50:11.199Z,43.11
2017-05-25T10:51:20.529Z,43.68
2017-05-25T10:52:30.229Z,43.4
2017-05-25T10:53:40.191Z,44.07
2017-05-25T10:54:50.153Z,43.78
2017-05-25T10:56:00.422Z,42.82
2017-05-25T10:57:10.062Z,42.63
2017-05-25T10:58:20.348Z,43.11
2017-05-25T10:59:30.628Z,43.78
2017-05-25T11:00:40.902Z,43.78
2017-05-25T11:01:50.855Z,42.82
2017-05-25T11:03:00.504Z,43.2
2017-05-25T11:04:10.473Z,43.11
2017-05-25T11:05:20.433Z,43.37
2017-05-25T11:06:30.387Z,43.4
2017-05-25T11:07:40.655Z,43.18
2017-05-25T11:08:50.932Z,43.37
2017-05-25T11:10:01.204Z,43.85
2017-05-25T11:11:11.159Z,43.47
2017-05-25T11:12:20.811Z,43.64
2017-05-25T11:13:30.766Z,44.51
2017-05-25T11:14:41.035Z,44.22
2017-05-25T11:15:51.004Z,44.41
2017-05-25T11:17:01.276Z,44.99
2017-05-25T11:18:11.231Z,44.41
2017-05-25T11:19:21.502Z,43.35
2017-05-25T11:20:30.836Z,43.74
2017-05-25T11:21:41.108Z,44.41
2017-05-25T11:22:51.377Z,45.37
2017-05-25T11:24:01.333Z,44.51
2017-05-25T11:25:10.975Z,44.41
2017-05-25T11:26:20.927Z,43.74
2017-05-25T11:27:31.198Z,43.64
2017-05-25T11:28:41.475Z,44.43
2017-05-25T11:29:51.438Z,43.97
2017-05-25T11:31:01.420Z,43.01
2017-05-25T11:32:11.373Z,43.05
2017-05-25T11:33:20.700Z,42.76
2017-05-25T11:34:30.974Z,40.86
2017-05-25T11:35:41.247Z,40.47
2017-05-25T11:36:51.521Z,40.78
2017-05-25T11:38:01.813Z,39.94
2017-05-25T11:39:12.086Z,37.83
2017-05-25T11:40:21.736Z,37.46
2017-05-25T11:41:31.698Z,36.8
2017-05-25T11:42:41.969Z,36.24
2017-05-25T11:43:51.618Z,35.88
2017-05-25T11:45:01.892Z,36.47
2017-05-25T11:46:11.544Z,35.62
2017-05-25T11:47:21.515Z,34.77
2017-05-25T11:48:31.802Z,34.59
2017-05-25T11:49:42.086Z,33.15
2017-05-25T11:50:52.371Z,32.67
2017-05-25T11:52:02.661Z,32.87
2017-05-25T11:53:12.642Z,30.76
2017-05-25T11:54:22.610Z,30.68
2017-05-25T11:55:32.258Z,30.77
2017-05-25T11:56:41.911Z,28.76
2017-05-25T11:57:52.190Z,29.15
2017-05-25T11:59:02.475Z,29.36
2017-05-25T12:00:12.439Z,28.3
2017-05-25T12:01:22.404Z,27.92
2017-05-25T12:02:32.062Z,28.99
2017-05-25T12:03:41.726Z,27.73
2017-05-25T12:04:52.011Z,28.22
2017-05-25T12:06:02.296Z,26.97
2017-05-25T12:07:12.266Z,27.45
2017-05-25T12:08:22.235Z,26.09
2017-05-25T12:09:32.518Z,26.68
2017-05-25T12:10:42.165Z,26.68
2017-05-25T12:11:52.134Z,26.79
2017-05-25T12:13:02.417Z,26.4
2017-05-25T12:14:12.384Z,25.04
2017-05-25T12:15:22.675Z,25.62
2017-05-25T12:16:32.954Z,25.8
2017-05-25T12:17:42.928Z,25.41
2017-05-25T12:18:53.225Z,25.4
2017-05-25T12:20:03.194Z,26.26
2017-05-25T12:21:13.174Z,26.65
2017-05-25T12:22:23.456Z,26.46
2017-05-25T12:23:33.108Z,25.48
2017-05-25T12:24:43.392Z,25.49
2017-05-25T12:25:53.365Z,26.57
2017-05-25T12:27:03.646Z,26.37
2017-05-25T12:28:13.610Z,26.86
2017-05-25T12:29:23.583Z,25.51
2017-05-25T12:30:33.868Z,25.51
2017-05-25T12:31:43.832Z,25.71
2017-05-25T12:32:53.802Z,24.56
2017-05-25T12:34:04.097Z,24.85
2017-05-25T12:35:14.067Z,24.96
2017-05-25T12:36:23.726Z,24.38
2017-05-25T12:37:34.013Z,23.69
2017-05-25T12:38:44.300Z,23.9
2017-05-25T12:39:54.598Z,24.01
2017-05-25T12:41:04.886Z,24.4
2017-05-25T12:42:14.864Z,22.75
2017-05-25T12:43:25.150Z,23.35
2017-05-25T12:44:35.444Z,23.54
2017-05-25T12:45:45.732Z,22.77
2017-05-25T12:46:55.717Z,22.3
2017-05-25T12:48:05.692Z,22.89
2017-05-25T12:49:15.357Z,22.51
2017-05-25T12:50:25.662Z,21.15
2017-05-25T12:51:35.637Z,20.56
2017-05-25T12:52:45.612Z,22.13
2017-05-25T12:53:55.585Z,21.86
2017-05-25T12:55:05.564Z,20.59
2017-05-25T12:56:15.541Z,18.94
2017-05-25T12:57:25.199Z,20.31
2017-05-25T12:58:35.172Z,20.12
2017-05-25T12:59:45.455Z,19.44
2017-05-25T13:00:55.114Z,19.45
2017-05-25T13:02:05.092Z,19.34
2017-05-25T13:03:15.062Z,19.64
2017-05-25T13:04:25.038Z,19.06
2017-05-25T13:05:34.696Z,18.77
2017-05-25T13:06:44.671Z,19.56
2017-05-25T13:07:54.953Z,18.98
2017-05-25T13:09:05.249Z,17.69
2017-05-25T13:10:15.224Z,18.08
2017-05-25T13:11:25.509Z,17.59
2017-05-25T13:12:35.791Z,17.69
2017-05-25T13:13:45.452Z,17.79
2017-05-25T13:14:55.739Z,17.69
2017-05-25T13:16:06.038Z,19.14
2017-05-25T13:17:16.006Z,18.75
2017-05-25T13:18:26.299Z,18.56
2017-05-25T13:19:36.599Z,17.88
2017-05-25T13:20:46.889Z,18.48
2017-05-25T13:21:57.177Z,18.77
2017-05-25T13:23:07.156Z,17.9
2017-05-25T13:24:17.497Z,18.29
2017-05-25T13:25:27.474Z,17.12
2017-05-25T13:26:37.129Z,17.61
2017-05-25T13:27:47.100Z,18.1
2017-05-25T13:28:57.075Z,17.02
2017-05-25T13:30:07.050Z,17.91
2017-05-25T13:31:17.344Z,17.82
2017-05-25T13:32:27.629Z,17.43
2017-05-25T13:33:37.609Z,17.44
2017-05-25T13:34:47.592Z,16.55
2017-05-25T13:35:57.564Z,15.97
2017-05-25T13:37:07.538Z,16.85
2017-05-25T13:38:17.825Z,17.22
2017-05-25T13:39:27.489Z,17.03
2017-05-25T13:40:37.150Z,17.82
2017-05-25T13:41:47.436Z,17.73
2017-05-25T13:42:57.407Z,17.13
2017-05-25T13:44:07.699Z,17.33
2017-05-25T13:45:17.369Z,17.14
2017-05-25T13:46:27.659Z,17.13
2017-05-25T13:47:37.950Z,16.94
2017-05-25T13:48:47.925Z,16.85
2017-05-25T13:49:57.596Z,16.64
2017-05-25T13:51:07.572Z,16.54
2017-05-25T13:52:17.860Z,17.03
2017-05-25T13:53:27.842Z,17.32
2017-05-25T13:54:38.134Z,17.02
2017-05-25T13:55:48.110Z,16.63
2017-05-25T13:56:58.089Z,17.02
2017-05-25T13:58:08.063Z,17.21
2017-05-25T13:59:18.038Z,17.11
2017-05-25T14:00:28.014Z,17.79
2017-05-25T14:01:38.301Z,17.69
2017-05-25T14:02:47.964Z,17.3
2017-05-25T14:03:57.940Z,17.5
2017-05-25T14:05:08.224Z,18.19
2017-05-25T14:06:18.199Z,17.21
2017-05-25T14:07:27.858Z,17.79
2017-05-25T14:08:38.157Z,18.46
2017-05-25T14:09:48.446Z,19.16
2017-05-25T14:10:58.728Z,17.98
2017-05-25T14:12:08.701Z,18.48
2017-05-25T14:13:18.679Z,18.37
2017-05-25T14:14:28.964Z,18.55
2017-05-25T14:15:39.245Z,19.34
2017-05-25T14:16:49.532Z,18.64
2017-05-25T14:17:59.821Z,19.12
2017-05-25T14:19:09.796Z,20
2017-05-25T14:20:19.764Z,19.99
2017-05-25T14:21:29.736Z,20.27
2017-05-25T14:22:39.709Z,21.25
2017-05-25T14:23:49.366Z,21.24
2017-05-25T14:24:59.654Z,22.02
2017-05-25T14:26:09.936Z,21.51
2017-05-25T14:27:20.220Z,21.6
2017-05-25T14:28:29.877Z,21.89
2017-05-25T14:29:40.156Z,22.47
2017-05-25T14:30:50.125Z,22.46
2017-05-25T14:32:00.404Z,22.64
2017-05-25T14:33:10.374Z,22.53
2017-05-25T14:34:20.033Z,22.83
2017-05-25T14:35:30.327Z,23.01
2017-05-25T14:36:40.353Z,23.6
2017-05-25T14:37:50.325Z,23.3
2017-05-25T14:39:00.612Z,23.79
2017-05-25T14:40:10.584Z,24.57
2017-05-25T14:41:20.230Z,24.46
2017-05-25T14:42:29.880Z,24.56
2017-05-25T14:43:39.848Z,24.45
2017-05-25T14:44:49.814Z,25.41
2017-05-25T14:46:00.090Z,25.3
2017-05-25T14:47:10.382Z,26.36
2017-05-25T14:48:20.671Z,26.64
2017-05-25T14:49:30.325Z,26.93
2017-05-25T14:50:40.305Z,26.92
2017-05-25T14:51:50.590Z,27.69
2017-05-25T14:53:00.883Z,28.07
2017-05-25T14:54:11.173Z,29.02
2017-05-25T14:55:21.466Z,28.74
2017-05-25T14:56:31.430Z,29.11
2017-05-25T14:57:41.403Z,29
2017-05-25T14:58:51.684Z,29.58
2017-05-25T15:00:01.653Z,29.48
2017-05-25T15:01:11.308Z,29.66
2017-05-25T15:02:21.271Z,30.15
2017-05-25T15:03:31.555Z,30.62
2017-05-25T15:04:41.833Z,30.42
2017-05-25T15:05:52.110Z,31.01
2017-05-25T15:07:02.076Z,31.01